createdAt,value
2023-03-22T00:00:28.031Z,94.75
2023-03-22T00:03:31.163Z,95.53
2023-03-22T00:06:33.735Z,96.13
2023-03-22T00:09:36.703Z,96.95
2023-03-22T00:12:39.424Z,98.02
2023-03-22T00:15:45.533Z,99.23
2023-03-22T00:18:48.463Z,99.96
2023-03-22T00:21:51.567Z,100.00
2023-03-22T00:24:54.133Z,100.00
2023-03-22T00:27:56.944Z,100.00
2023-03-22T00:31:01.273Z,100.00
2023-03-22T00:34:04.183Z,100.00
2023-03-22T00:37:08.057Z,100.00
2023-03-22T00:40:13.574Z,100.00
2023-03-22T00:43:16.839Z,100.00
2023-03-22T00:46:21.836Z,100.00
2023-03-22T00:49:25.625Z,100.00
2023-03-22T00:52:29.701Z,100.00
2023-03-22T00:55:33.366Z,100.00
2023-03-22T00:58:36.182Z,100.00
2023-03-22T01:01:40.033Z,100.00
2023-03-22T01:04:46.408Z,100.00
2023-03-22T01:07:52.149Z,100.00
2023-03-22T01:10:55.046Z,100.00
2023-03-22T01:13:59.602Z,100.00
2023-03-22T01:17:02.924Z,100.00
2023-03-22T01:20:06.971Z,100.00
2023-03-22T01:23:10.073Z,100.00
2023-03-22T01:26:12.793Z,100.00
2023-03-22T01:29:16.061Z,100.00
2023-03-22T01:32:18.621Z,100.00
2023-03-22T01:35:21.814Z,100.00
2023-03-22T01:38:24.383Z,100.00
2023-03-22T01:41:28.151Z,100.00
2023-03-22T01:44:33.579Z,100.00
2023-03-22T01:47:36.836Z,100.00
2023-03-22T01:50:42.636Z,100.00
2023-03-22T01:53:51.864Z,100.00
2023-03-22T01:56:54.765Z,100.00
2023-03-22T02:00:00.705Z,100.00
2023-03-22T02:03:06.259Z,100.00
2023-03-22T02:06:09.599Z,100.00
2023-03-22T02:09:17.392Z,100.00
2023-03-22T02:12:23.158Z,100.00
2023-03-22T02:15:36.176Z,100.00
2023-03-22T02:18:49.349Z,100.00
2023-03-22T02:22:10.341Z,100.00
2023-03-22T02:25:19.240Z,100.00
2023-03-22T02:28:22.017Z,100.00
2023-03-22T02:32:03.944Z,100.00
2023-03-22T02:35:38.925Z,100.00
2023-03-22T02:38:58.458Z,100.00
2023-03-22T02:42:02.807Z,100.00
2023-03-22T02:45:18.220Z,100.00
2023-03-22T02:48:30.832Z,100.00
2023-03-22T02:51:44.741Z,100.00
2023-03-22T02:55:03.827Z,100.00
2023-03-22T02:58:18.968Z,100.00
2023-03-22T03:01:29.122Z,100.00
2023-03-22T03:04:41.138Z,100.00
2023-03-22T03:07:50.457Z,100.00
2023-03-22T03:10:54.901Z,100.00
2023-03-22T03:13:57.791Z,100.00
2023-03-22T03:17:19.263Z,100.00
2023-03-22T03:20:30.450Z,100.00
2023-03-22T03:23:46.709Z,100.00
2023-03-22T03:27:08.588Z,100.00
2023-03-22T03:30:16.953Z,100.00
2023-03-22T03:33:25.597Z,100.00
2023-03-22T03:36:30.863Z,100.00
2023-03-22T03:39:39.865Z,100.00
2023-03-22T03:42:50.322Z,100.00
2023-03-22T03:45:54.337Z,100.00
2023-03-22T03:48:58.289Z,100.00
2023-03-22T03:52:01.461Z,100.00
2023-03-22T03:55:05.092Z,100.00
2023-03-22T03:58:09.564Z,100.00
2023-03-22T04:01:12.626Z,100.00
2023-03-22T04:04:26.668Z,100.00
2023-03-22T04:07:29.689Z,100.00
2023-03-22T04:10:32.721Z,100.00
2023-03-22T04:13:35.690Z,100.00
2023-03-22T04:16:38.924Z,100.00
2023-03-22T04:19:47.004Z,100.00
2023-03-22T04:22:49.997Z,100.00
2023-03-22T04:25:54.658Z,100.00
2023-03-22T04:28:58.663Z,100.00
2023-03-22T04:32:02.742Z,100.00
2023-03-22T04:35:06.435Z,100.00
2023-03-22T04:38:09.986Z,100.00
2023-03-22T04:41:13.738Z,100.00
2023-03-22T04:44:17.054Z,100.00
2023-03-22T04:47:22.869Z,100.00
2023-03-22T04:50:28.245Z,100.00
2023-03-22T04:53:33.111Z,100.00
2023-03-22T04:56:36.118Z,100.00
2023-03-22T04:59:39.036Z,100.00
2023-03-22T05:02:42.181Z,100.00
2023-03-22T05:05:54.398Z,100.00
2023-03-22T05:08:57.673Z,100.00
2023-03-22T05:12:01.012Z,100.00
2023-03-22T05:15:06.136Z,100.00
2023-03-22T05:18:09.583Z,100.00
2023-03-22T05:21:16.715Z,100.00
2023-03-22T05:24:20.670Z,100.00
2023-03-22T05:27:31.476Z,100.00
2023-03-22T05:30:35.662Z,100.00
2023-03-22T05:33:39.288Z,100.00
2023-03-22T05:36:42.420Z,100.00
2023-03-22T05:39:45.467Z,100.00
2023-03-22T05:42:48.585Z,100.00
2023-03-22T05:45:51.775Z,100.00
2023-03-22T05:48:56.184Z,100.00
2023-03-22T05:51:59.393Z,100.00
2023-03-22T05:55:03.778Z,100.00
2023-03-22T05:58:07.717Z,100.00
2023-03-22T06:01:12.793Z,100.00
2023-03-22T06:04:18.800Z,100.00
2023-03-22T06:07:22.141Z,100.00
2023-03-22T06:10:29.338Z,100.00
2023-03-22T06:13:33.221Z,100.00
2023-03-22T06:16:36.283Z,100.00
2023-03-22T06:19:39.427Z,100.00
2023-03-22T06:22:42.886Z,100.00
2023-03-22T06:25:46.062Z,100.00
2023-03-22T06:28:49.001Z,98.19
2023-03-22T06:31:51.965Z,97.49
2023-03-22T06:34:55.728Z,96.66
2023-03-22T06:37:59.457Z,95.17
2023-03-22T06:41:03.361Z,93.42
2023-03-22T06:44:06.057Z,90.39
2023-03-22T06:47:11.705Z,86.48
2023-03-22T06:50:15.814Z,84.24
2023-03-22T06:53:23.671Z,84.71
2023-03-22T06:56:27.115Z,83.50
2023-03-22T06:59:30.310Z,83.32
2023-03-22T07:02:32.939Z,82.36
2023-03-22T07:05:40.014Z,81.37
2023-03-22T07:08:43.179Z,81.45
2023-03-22T07:11:47.532Z,80.68
2023-03-22T07:14:50.928Z,80.64
2023-03-22T07:17:54.462Z,79.07
2023-03-22T07:20:57.469Z,79.10
2023-03-22T07:24:00.904Z,77.93
2023-03-22T07:27:03.999Z,77.26
2023-03-22T07:30:09.790Z,74.88
2023-03-22T07:33:12.807Z,74.90
2023-03-22T07:36:16.852Z,74.85
2023-03-22T07:39:19.410Z,73.39
2023-03-22T07:42:23.750Z,73.27
2023-03-22T07:45:30.010Z,69.89
2023-03-22T07:48:36.458Z,69.97
2023-03-22T07:51:40.895Z,69.57
2023-03-22T07:54:44.453Z,70.34
2023-03-22T07:57:47.091Z,68.31
2023-03-22T08:00:50.416Z,67.13
2023-03-22T08:03:57.111Z,66.26
2023-03-22T08:07:01.202Z,66.20
2023-03-22T08:10:04.896Z,65.10
2023-03-22T08:13:09.443Z,64.67
2023-03-22T08:16:12.660Z,62.40
2023-03-22T08:19:15.490Z,61.17
2023-03-22T08:22:19.191Z,60.54
2023-03-22T08:25:25.408Z,60.75
2023-03-22T08:28:28.669Z,60.79
2023-03-22T08:31:31.695Z,59.36
2023-03-22T08:34:39.227Z,59.43
2023-03-22T08:37:41.936Z,59.10
2023-03-22T08:40:48.455Z,58.53
2023-03-22T08:43:54.125Z,59.07
2023-03-22T08:46:57.278Z,58.81
2023-03-22T08:49:59.947Z,58.02
2023-03-22T08:53:03.761Z,58.83
2023-03-22T08:56:07.899Z,57.95
2023-03-22T08:59:11.758Z,58.08
2023-03-22T09:02:14.833Z,57.59
2023-03-22T09:05:17.859Z,56.74
2023-03-22T09:08:21.208Z,57.71
2023-03-22T09:11:24.701Z,56.38
2023-03-22T09:14:27.484Z,56.15
2023-03-22T09:17:30.681Z,55.38
2023-03-22T09:20:34.652Z,54.61
2023-03-22T09:23:39.308Z,54.56
2023-03-22T09:26:42.464Z,53.48
2023-03-22T09:29:45.554Z,53.79
2023-03-22T09:32:49.317Z,54.08
2023-03-22T09:35:54.676Z,53.96
2023-03-22T09:38:57.688Z,54.11
2023-03-22T09:42:04.230Z,53.81
2023-03-22T09:45:13.796Z,54.29
2023-03-22T09:48:28.915Z,54.50
2023-03-22T09:51:41.885Z,54.25
2023-03-22T09:54:47.259Z,54.57
2023-03-22T09:57:58.829Z,53.72
2023-03-22T10:01:24.856Z,53.75
2023-03-22T10:04:55.406Z,54.27
2023-03-22T10:08:10.912Z,54.90
2023-03-22T10:11:40.150Z,56.07
2023-03-22T10:14:48.088Z,57.52
2023-03-22T10:17:55.325Z,58.05
2023-03-22T10:21:04.436Z,58.48
2023-03-22T10:24:17.291Z,58.25
2023-03-22T10:27:21.686Z,57.76
2023-03-22T10:30:27.443Z,58.66
2023-03-22T10:33:50.270Z,58.60
2023-03-22T10:36:53.548Z,58.98
2023-03-22T10:39:59.912Z,58.99
2023-03-22T10:43:11.786Z,58.50
2023-03-22T10:46:18.996Z,59.20
2023-03-22T10:49:29.550Z,59.64
2023-03-22T10:52:50.584Z,60.04
2023-03-22T10:55:53.460Z,60.11
2023-03-22T10:58:57.383Z,60.84
2023-03-22T11:02:01.761Z,61.06
2023-03-22T11:05:07.271Z,61.21
2023-03-22T11:08:14.535Z,61.33
2023-03-22T11:11:27.816Z,61.37
2023-03-22T11:14:35.388Z,61.19
2023-03-22T11:17:39.167Z,61.67
2023-03-22T11:20:52.534Z,61.49
2023-03-22T11:24:00.538Z,61.55
2023-03-22T11:27:06.312Z,61.90
2023-03-22T11:30:20.293Z,61.66
2023-03-22T11:33:25.964Z,61.16
2023-03-22T11:36:29.678Z,60.84
2023-03-22T11:39:32.732Z,59.26
2023-03-22T11:42:35.908Z,58.29
2023-03-22T11:45:44.059Z,56.84
2023-03-22T11:48:50.503Z,54.95
2023-03-22T11:51:55.603Z,53.19
2023-03-22T11:55:00.199Z,52.98
2023-03-22T11:58:04.781Z,52.42
2023-03-22T12:01:16.097Z,52.23
2023-03-22T12:04:25.468Z,50.04
2023-03-22T12:07:31.243Z,50.14
2023-03-22T12:10:41.272Z,48.65
2023-03-22T12:13:52.888Z,48.36
2023-03-22T12:17:06.371Z,47.52
2023-03-22T12:20:31.038Z,47.18
2023-03-22T12:23:35.324Z,46.81
2023-03-22T12:26:38.995Z,47.16
2023-03-22T12:29:58.638Z,47.17
2023-03-22T12:33:18.518Z,47.09
2023-03-22T12:36:27.566Z,47.42
2023-03-22T12:39:35.312Z,46.22
2023-03-22T12:42:51.574Z,45.84
2023-03-22T12:45:59.114Z,45.80
2023-03-22T12:49:15.512Z,46.14
2023-03-22T12:52:26.461Z,45.86
2023-03-22T12:55:36.737Z,45.20
2023-03-22T12:58:39.539Z,43.58
2023-03-22T13:01:54.808Z,41.28
2023-03-22T13:05:04.929Z,40.87
2023-03-22T13:08:08.152Z,40.46
2023-03-22T13:11:23.284Z,40.94
2023-03-22T13:14:49.014Z,40.55
2023-03-22T13:18:02.659Z,38.90
2023-03-22T13:21:21.287Z,37.46
2023-03-22T13:24:24.008Z,37.79
2023-03-22T13:27:39.974Z,37.46
2023-03-22T13:30:50.012Z,36.19
2023-03-22T13:33:53.675Z,36.47
2023-03-22T13:36:57.406Z,36.90
2023-03-22T13:40:02.313Z,36.17
2023-03-22T13:43:20.013Z,36.60
2023-03-22T13:46:23.101Z,36.64
2023-03-22T13:49:58.671Z,37.01
2023-03-22T13:53:05.114Z,38.12
2023-03-22T13:56:12.601Z,37.91
2023-03-22T13:59:20.379Z,38.64
2023-03-22T14:02:35.954Z,38.63
2023-03-22T14:05:39.957Z,39.08
2023-03-22T14:08:46.320Z,38.71
2023-03-22T14:11:56.982Z,39.25
2023-03-22T14:15:03.632Z,39.01
2023-03-22T14:18:23.951Z,39.21
2023-03-22T14:21:35.003Z,38.29
